sensor_id;sensor_type;location;lat;lon;timestamp;temperature;humidity
21582;DHT22;10952;50.836;4.348;2022-09-16T00:02:20;16.20;99.90
21582;DHT22;10952;50.836;4.348;2022-09-16T00:04:46;16.20;99.90
21582;DHT22;10952;50.836;4.348;2022-09-16T00:07:12;16.20;99.90
21582;DHT22;10952;50.836;4.348;2022-09-16T00:09:38;16.10;99.90
21582;DHT22;10952;50.836;4.348;2022-09-16T00:12:05;16.10;99.90
21582;DHT22;10952;50.836;4.348;2022-09-16T00:14:32;16.10;99.90
21582;DHT22;10952;50.836;4.348;2022-09-16T00:16:57;16.10;99.90
21582;DHT22;10952;50.836;4.348;2022-09-16T00:19:24;16.00;99.90
21582;DHT22;10952;50.836;4.348;2022-09-16T00:21:50;16.00;99.90
21582;DHT22;10952;50.836;4.348;2022-09-16T00:24:15;16.10;99.90
21582;DHT22;10952;50.836;4.348;2022-09-16T00:26:42;16.10;99.90
21582;DHT22;10952;50.836;4.348;2022-09-16T00:29:08;16.10;99.90
21582;DHT22;10952;50.836;4.348;2022-09-16T00:31:34;16.10;99.90
21582;DHT22;10952;50.836;4.348;2022-09-16T00:34:01;16.00;99.90
21582;DHT22;10952;50.836;4.348;2022-09-16T00:36:26;15.90;99.90
21582;DHT22;10952;50.836;4.348;2022-09-16T00:38:53;15.80;99.90
21582;DHT22;10952;50.836;4.348;2022-09-16T00:41:27;15.80;99.90
21582;DHT22;10952;50.836;4.348;2022-09-16T00:44:00;15.90;99.90
21582;DHT22;10952;50.836;4.348;2022-09-16T00:49:10;16.00;99.90
21582;DHT22;10952;50.836;4.348;2022-09-16T00:51:44;16.00;99.90
21582;DHT22;10952;50.836;4.348;2022-09-16T00:54:15;16.00;99.90
21582;DHT22;10952;50.836;4.348;2022-09-16T00:56:47;15.90;99.90
21582;DHT22;10952;50.836;4.348;2022-09-16T00:59:23;16.00;99.90
21582;DHT22;10952;50.836;4.348;2022-09-16T01:01:53;15.90;99.90
21582;DHT22;10952;50.836;4.348;2022-09-16T01:04:26;15.80;99.90
21582;DHT22;10952;50.836;4.348;2022-09-16T01:06:53;15.80;99.90
21582;DHT22;10952;50.836;4.348;2022-09-16T01:09:21;15.90;99.90
21582;DHT22;10952;50.836;4.348;2022-09-16T01:11:47;15.70;99.90
21582;DHT22;10952;50.836;4.348;2022-09-16T01:14:14;15.80;99.90
21582;DHT22;10952;50.836;4.348;2022-09-16T01:24:12;16.00;99.90
21582;DHT22;10952;50.836;4.348;2022-09-16T01:26:27;15.90;99.90
21582;DHT22;10952;50.836;4.348;2022-09-16T01:32:03;15.70;99.90
21582;DHT22;10952;50.836;4.348;2022-09-16T01:45:42;15.40;99.90
21582;DHT22;10952;50.836;4.348;2022-09-16T01:48:32;15.30;99.90
21582;DHT22;10952;50.836;4.348;2022-09-16T01:53:38;15.20;99.90
21582;DHT22;10952;50.836;4.348;2022-09-16T02:04:12;15.40;99.90
21582;DHT22;10952;50.836;4.348;2022-09-16T02:06:40;15.30;99.90
21582;DHT22;10952;50.836;4.348;2022-09-16T02:09:21;15.30;99.90
21582;DHT22;10952;50.836;4.348;2022-09-16T02:11:50;15.40;99.90
21582;DHT22;10952;50.836;4.348;2022-09-16T02:14:26;15.40;99.90
21582;DHT22;10952;50.836;4.348;2022-09-16T02:17:00;15.40;99.90
21582;DHT22;10952;50.836;4.348;2022-09-16T02:19:42;15.40;99.90
21582;DHT22;10952;50.836;4.348;2022-09-16T02:22:15;15.50;99.90
21582;DHT22;10952;50.836;4.348;2022-09-16T02:24:44;15.60;99.90
21582;DHT22;10952;50.836;4.348;2022-09-16T02:27:16;15.50;99.90
21582;DHT22;10952;50.836;4.348;2022-09-16T02:29:55;15.50;99.90
21582;DHT22;10952;50.836;4.348;2022-09-16T02:32:26;15.50;99.90
21582;DHT22;10952;50.836;4.348;2022-09-16T02:34:53;15.60;99.90
21582;DHT22;10952;50.836;4.348;2022-09-16T02:37:30;15.80;99.90
21582;DHT22;10952;50.836;4.348;2022-09-16T02:40:02;15.70;99.90
21582;DHT22;10952;50.836;4.348;2022-09-16T02:42:33;15.60;99.90
21582;DHT22;10952;50.836;4.348;2022-09-16T02:45:00;15.60;99.90
21582;DHT22;10952;50.836;4.348;2022-09-16T02:50:16;15.50;99.90
21582;DHT22;10952;50.836;4.348;2022-09-16T02:53:28;15.60;99.90
21582;DHT22;10952;50.836;4.348;2022-09-16T02:56:16;15.50;99.90
21582;DHT22;10952;50.836;4.348;2022-09-16T02:58:47;15.60;99.90
21582;DHT22;10952;50.836;4.348;2022-09-16T03:01:13;15.50;99.90
21582;DHT22;10952;50.836;4.348;2022-09-16T03:03:40;15.50;99.90
21582;DHT22;10952;50.836;4.348;2022-09-16T03:08:39;15.60;99.90
21582;DHT22;10952;50.836;4.348;2022-09-16T03:25:09;15.50;99.90
21582;DHT22;10952;50.836;4.348;2022-09-16T03:30:30;15.30;99.90
21582;DHT22;10952;50.836;4.348;2022-09-16T03:33:04;15.30;99.90
21582;DHT22;10952;50.836;4.348;2022-09-16T03:35:52;15.30;99.90
21582;DHT22;10952;50.836;4.348;2022-09-16T03:38:26;15.30;99.90
21582;DHT22;10952;50.836;4.348;2022-09-16T03:40:55;15.30;99.90
21582;DHT22;10952;50.836;4.348;2022-09-16T03:43:21;15.30;99.90
21582;DHT22;10952;50.836;4.348;2022-09-16T03:45:46;15.30;99.90
21582;DHT22;10952;50.836;4.348;2022-09-16T03:48:15;15.30;99.90
21582;DHT22;10952;50.836;4.348;2022-09-16T03:50:41;15.30;99.90
21582;DHT22;10952;50.836;4.348;2022-09-16T03:53:06;15.20;99.90
21582;DHT22;10952;50.836;4.348;2022-09-16T03:55:33;15.10;99.90
21582;DHT22;10952;50.836;4.348;2022-09-16T03:58:00;15.10;99.90
21582;DHT22;10952;50.836;4.348;2022-09-16T04:00:27;14.90;99.90
21582;DHT22;10952;50.836;4.348;2022-09-16T04:02:53;14.80;99.90
21582;DHT22;10952;50.836;4.348;2022-09-16T04:05:19;14.70;99.90
21582;DHT22;10952;50.836;4.348;2022-09-16T04:07:46;14.70;99.90
21582;DHT22;10952;50.836;4.348;2022-09-16T04:10:12;14.70;99.90
21582;DHT22;10952;50.836;4.348;2022-09-16T04:12:39;14.70;99.90
21582;DHT22;10952;50.836;4.348;2022-09-16T04:15:06;14.70;99.90
21582;DHT22;10952;50.836;4.348;2022-09-16T04:17:37;14.80;99.90
21582;DHT22;10952;50.836;4.348;2022-09-16T04:20:04;14.90;99.90
21582;DHT22;10952;50.836;4.348;2022-09-16T04:22:30;14.90;99.90
21582;DHT22;10952;50.836;4.348;2022-09-16T04:24:56;14.90;99.90
21582;DHT22;10952;50.836;4.348;2022-09-16T04:27:24;14.80;99.90
21582;DHT22;10952;50.836;4.348;2022-09-16T04:29:50;14.60;99.90
21582;DHT22;10952;50.836;4.348;2022-09-16T04:32:15;14.60;99.90
21582;DHT22;10952;50.836;4.348;2022-09-16T04:34:41;14.80;99.90
21582;DHT22;10952;50.836;4.348;2022-09-16T04:37:08;14.80;99.90
21582;DHT22;10952;50.836;4.348;2022-09-16T04:39:34;14.80;99.90
21582;DHT22;10952;50.836;4.348;2022-09-16T04:41:59;14.80;99.90
21582;DHT22;10952;50.836;4.348;2022-09-16T04:44:26;14.80;99.90
21582;DHT22;10952;50.836;4.348;2022-09-16T04:46:55;14.90;99.90
21582;DHT22;10952;50.836;4.348;2022-09-16T04:49:21;14.90;99.90
21582;DHT22;10952;50.836;4.348;2022-09-16T04:51:46;14.90;99.90
21582;DHT22;10952;50.836;4.348;2022-09-16T04:54:13;14.90;99.90
21582;DHT22;10952;50.836;4.348;2022-09-16T04:56:38;14.90;99.90
21582;DHT22;10952;50.836;4.348;2022-09-16T04:59:04;15.00;99.90
21582;DHT22;10952;50.836;4.348;2022-09-16T05:01:34;14.90;99.90
21582;DHT22;10952;50.836;4.348;2022-09-16T05:04:02;14.90;99.90
21582;DHT22;10952;50.836;4.348;2022-09-16T05:06:30;14.70;99.90
21582;DHT22;10952;50.836;4.348;2022-09-16T05:08:58;14.70;99.90
21582;DHT22;10952;50.836;4.348;2022-09-16T05:11:31;14.80;99.90
21582;DHT22;10952;50.836;4.348;2022-09-16T05:14:00;15.00;99.90
21582;DHT22;10952;50.836;4.348;2022-09-16T05:16:26;15.10;99.90
21582;DHT22;10952;50.836;4.348;2022-09-16T05:18:55;15.00;99.90
21582;DHT22;10952;50.836;4.348;2022-09-16T05:21:23;15.00;99.90
21582;DHT22;10952;50.836;4.348;2022-09-16T05:23:51;14.90;99.90
21582;DHT22;10952;50.836;4.348;2022-09-16T05:26:24;14.90;99.90
21582;DHT22;10952;50.836;4.348;2022-09-16T05:28:51;14.70;99.90
21582;DHT22;10952;50.836;4.348;2022-09-16T05:31:28;14.70;99.90
21582;DHT22;10952;50.836;4.348;2022-09-16T05:34:00;14.70;99.90
21582;DHT22;10952;50.836;4.348;2022-09-16T05:36:28;14.80;99.90
21582;DHT22;10952;50.836;4.348;2022-09-16T05:38:55;14.80;99.90
21582;DHT22;10952;50.836;4.348;2022-09-16T05:41:21;14.80;99.90
21582;DHT22;10952;50.836;4.348;2022-09-16T05:43:50;14.80;99.90
21582;DHT22;10952;50.836;4.348;2022-09-16T05:46:22;14.70;99.90
21582;DHT22;10952;50.836;4.348;2022-09-16T05:48:48;14.60;99.90
21582;DHT22;10952;50.836;4.348;2022-09-16T05:51:22;14.50;99.90
21582;DHT22;10952;50.836;4.348;2022-09-16T05:53:49;14.60;99.90
21582;DHT22;10952;50.836;4.348;2022-09-16T05:56:17;14.60;99.90
21582;DHT22;10952;50.836;4.348;2022-09-16T05:58:45;14.60;99.90
21582;DHT22;10952;50.836;4.348;2022-09-16T06:01:17;14.80;99.90
21582;DHT22;10952;50.836;4.348;2022-09-16T06:03:44;14.80;99.90
21582;DHT22;10952;50.836;4.348;2022-09-16T06:08:49;14.80;99.90
21582;DHT22;10952;50.836;4.348;2022-09-16T06:11:25;14.90;99.90
21582;DHT22;10952;50.836;4.348;2022-09-16T06:14:01;14.90;99.90
21582;DHT22;10952;50.836;4.348;2022-09-16T06:16:31;14.90;99.90
21582;DHT22;10952;50.836;4.348;2022-09-16T06:19:09;14.90;99.90
21582;DHT22;10952;50.836;4.348;2022-09-16T06:21:36;14.90;99.90
21582;DHT22;10952;50.836;4.348;2022-09-16T06:24:05;14.90;99.90
21582;DHT22;10952;50.836;4.348;2022-09-16T06:26:37;14.90;99.90
21582;DHT22;10952;50.836;4.348;2022-09-16T06:29:03;14.90;99.90
21582;DHT22;10952;50.836;4.348;2022-09-16T06:31:31;14.80;99.90
21582;DHT22;10952;50.836;4.348;2022-09-16T06:33:57;14.80;99.90
21582;DHT22;10952;50.836;4.348;2022-09-16T06:36:29;14.90;99.90
21582;DHT22;10952;50.836;4.348;2022-09-16T06:38:57;15.10;99.90
21582;DHT22;10952;50.836;4.348;2022-09-16T06:41:23;15.10;99.90
21582;DHT22;10952;50.836;4.348;2022-09-16T06:43:50;15.10;99.90
21582;DHT22;10952;50.836;4.348;2022-09-16T06:46:21;15.20;99.90
21582;DHT22;10952;50.836;4.348;2022-09-16T06:48:49;15.30;99.90
21582;DHT22;10952;50.836;4.348;2022-09-16T06:51:17;15.10;99.90
21582;DHT22;10952;50.836;4.348;2022-09-16T06:53:47;15.00;99.90
21582;DHT22;10952;50.836;4.348;2022-09-16T06:56:23;14.80;99.90
21582;DHT22;10952;50.836;4.348;2022-09-16T06:58:50;14.70;99.90
21582;DHT22;10952;50.836;4.348;2022-09-16T07:01:27;14.30;99.90
21582;DHT22;10952;50.836;4.348;2022-09-16T07:03:56;14.30;99.90
21582;DHT22;10952;50.836;4.348;2022-09-16T07:06:27;14.40;99.90
21582;DHT22;10952;50.836;4.348;2022-09-16T07:08:55;14.50;99.90
21582;DHT22;10952;50.836;4.348;2022-09-16T07:11:23;14.50;99.90
21582;DHT22;10952;50.836;4.348;2022-09-16T07:13:50;14.50;99.90
21582;DHT22;10952;50.836;4.348;2022-09-16T07:16:23;14.50;99.90
21582;DHT22;10952;50.836;4.348;2022-09-16T07:18:55;14.40;99.90
21582;DHT22;10952;50.836;4.348;2022-09-16T07:21:25;14.50;99.90
21582;DHT22;10952;50.836;4.348;2022-09-16T07:23:55;14.40;99.90
21582;DHT22;10952;50.836;4.348;2022-09-16T07:26:27;14.40;99.90
21582;DHT22;10952;50.836;4.348;2022-09-16T07:28:59;14.40;99.90
21582;DHT22;10952;50.836;4.348;2022-09-16T07:31:27;14.40;99.90
21582;DHT22;10952;50.836;4.348;2022-09-16T07:33:57;14.50;99.90
21582;DHT22;10952;50.836;4.348;2022-09-16T07:36:25;14.40;99.90
21582;DHT22;10952;50.836;4.348;2022-09-16T07:38:54;14.40;99.90
21582;DHT22;10952;50.836;4.348;2022-09-16T07:41:25;14.40;99.90
21582;DHT22;10952;50.836;4.348;2022-09-16T07:43:53;14.30;99.90
21582;DHT22;10952;50.836;4.348;2022-09-16T07:46:28;14.60;99.90
21582;DHT22;10952;50.836;4.348;2022-09-16T07:48:54;14.70;99.90
21582;DHT22;10952;50.836;4.348;2022-09-16T07:51:23;14.60;99.90
21582;DHT22;10952;50.836;4.348;2022-09-16T07:53:58;14.70;99.90
21582;DHT22;10952;50.836;4.348;2022-09-16T07:56:27;14.60;99.90
21582;DHT22;10952;50.836;4.348;2022-09-16T07:59:00;14.50;99.90
21582;DHT22;10952;50.836;4.348;2022-09-16T08:01:26;14.70;99.90
21582;DHT22;10952;50.836;4.348;2022-09-16T08:03:52;14.90;99.90
21582;DHT22;10952;50.836;4.348;2022-09-16T08:06:22;15.10;99.90
21582;DHT22;10952;50.836;4.348;2022-09-16T08:08:51;15.30;99.90
21582;DHT22;10952;50.836;4.348;2022-09-16T08:11:18;15.50;99.90
21582;DHT22;10952;50.836;4.348;2022-09-16T08:13:44;15.50;99.90
21582;DHT22;10952;50.836;4.348;2022-09-16T08:16:13;15.60;99.90
21582;DHT22;10952;50.836;4.348;2022-09-16T08:18:41;15.70;99.90
21582;DHT22;10952;50.836;4.348;2022-09-16T08:21:14;15.70;99.90
21582;DHT22;10952;50.836;4.348;2022-09-16T08:23:41;15.70;99.90
21582;DHT22;10952;50.836;4.348;2022-09-16T08:26:10;15.80;99.90
21582;DHT22;10952;50.836;4.348;2022-09-16T08:28:39;15.80;99.90
21582;DHT22;10952;50.836;4.348;2022-09-16T08:31:05;15.70;99.90
21582;DHT22;10952;50.836;4.348;2022-09-16T08:33:31;15.60;99.90
21582;DHT22;10952;50.836;4.348;2022-09-16T08:36:16;15.50;99.90
21582;DHT22;10952;50.836;4.348;2022-09-16T08:38:47;15.40;99.90
21582;DHT22;10952;50.836;4.348;2022-09-16T08:46:57;15.00;99.90
21582;DHT22;10952;50.836;4.348;2022-09-16T08:49:31;14.50;99.90
21582;DHT22;10952;50.836;4.348;2022-09-16T08:52:01;14.10;99.90
21582;DHT22;10952;50.836;4.348;2022-09-16T08:54:38;13.70;99.90
21582;DHT22;10952;50.836;4.348;2022-09-16T08:57:13;13.60;99.90
21582;DHT22;10952;50.836;4.348;2022-09-16T08:59:43;13.60;99.90
21582;DHT22;10952;50.836;4.348;2022-09-16T09:02:41;13.60;99.90
21582;DHT22;10952;50.836;4.348;2022-09-16T09:06:19;13.70;99.90
21582;DHT22;10952;50.836;4.348;2022-09-16T09:08:44;13.80;99.90
21582;DHT22;10952;50.836;4.348;2022-09-16T09:19:43;13.80;99.90
21582;DHT22;10952;50.836;4.348;2022-09-16T09:27:26;14.10;99.90
21582;DHT22;10952;50.836;4.348;2022-09-16T09:30:04;14.20;99.90
21582;DHT22;10952;50.836;4.348;2022-09-16T09:32:52;14.20;99.90
21582;DHT22;10952;50.836;4.348;2022-09-16T09:36:05;14.20;99.90
21582;DHT22;10952;50.836;4.348;2022-09-16T09:41:38;14.80;99.90
21582;DHT22;10952;50.836;4.348;2022-09-16T09:47:02;15.10;99.90
21582;DHT22;10952;50.836;4.348;2022-09-16T09:49:34;15.20;99.90
21582;DHT22;10952;50.836;4.348;2022-09-16T09:52:06;15.10;99.90
21582;DHT22;10952;50.836;4.348;2022-09-16T09:54:37;15.20;99.90
21582;DHT22;10952;50.836;4.348;2022-09-16T09:57:17;15.20;99.90
21582;DHT22;10952;50.836;4.348;2022-09-16T10:02:20;15.60;99.90
21582;DHT22;10952;50.836;4.348;2022-09-16T10:04:47;16.00;99.90
21582;DHT22;10952;50.836;4.348;2022-09-16T10:07:19;16.00;99.90
21582;DHT22;10952;50.836;4.348;2022-09-16T10:12:35;16.30;99.90
21582;DHT22;10952;50.836;4.348;2022-09-16T10:15:01;16.50;99.90
21582;DHT22;10952;50.836;4.348;2022-09-16T10:17:29;16.70;99.90
21582;DHT22;10952;50.836;4.348;2022-09-16T10:20:05;16.60;99.90
21582;DHT22;10952;50.836;4.348;2022-09-16T10:23:26;16.50;99.90
21582;DHT22;10952;50.836;4.348;2022-09-16T10:25:45;16.40;99.90
21582;DHT22;10952;50.836;4.348;2022-09-16T10:28:25;16.70;99.90
21582;DHT22;10952;50.836;4.348;2022-09-16T10:30:53;16.90;99.90
21582;DHT22;10952;50.836;4.348;2022-09-16T10:33:40;16.70;99.90
21582;DHT22;10952;50.836;4.348;2022-09-16T10:36:31;15.90;99.90
21582;DHT22;10952;50.836;4.348;2022-09-16T10:38:59;14.90;99.90
21582;DHT22;10952;50.836;4.348;2022-09-16T10:41:39;14.40;99.90
21582;DHT22;10952;50.836;4.348;2022-09-16T10:47:00;14.00;99.90
21582;DHT22;10952;50.836;4.348;2022-09-16T10:49:42;14.00;99.90
21582;DHT22;10952;50.836;4.348;2022-09-16T10:52:19;14.20;99.90
21582;DHT22;10952;50.836;4.348;2022-09-16T10:54:45;14.30;99.90
21582;DHT22;10952;50.836;4.348;2022-09-16T11:00:15;14.50;99.90
21582;DHT22;10952;50.836;4.348;2022-09-16T11:08:12;16.20;99.90
21582;DHT22;10952;50.836;4.348;2022-09-16T11:16:48;17.70;99.90
21582;DHT22;10952;50.836;4.348;2022-09-16T11:28:23;18.00;99.90
21582;DHT22;10952;50.836;4.348;2022-09-16T11:33:37;16.50;99.90
21582;DHT22;10952;50.836;4.348;2022-09-16T11:55:55;14.50;99.90
21582;DHT22;10952;50.836;4.348;2022-09-16T11:58:49;14.30;99.90
21582;DHT22;10952;50.836;4.348;2022-09-16T12:01:47;13.90;99.90
21582;DHT22;10952;50.836;4.348;2022-09-16T12:04:12;13.80;99.90
21582;DHT22;10952;50.836;4.348;2022-09-16T12:07:17;13.80;99.90
21582;DHT22;10952;50.836;4.348;2022-09-16T12:09:45;13.90;99.90
21582;DHT22;10952;50.836;4.348;2022-09-16T12:12:18;13.80;99.90
21582;DHT22;10952;50.836;4.348;2022-09-16T12:14:52;13.70;99.90
21582;DHT22;10952;50.836;4.348;2022-09-16T12:17:25;13.50;99.90
21582;DHT22;10952;50.836;4.348;2022-09-16T12:22:53;13.40;99.90
21582;DHT22;10952;50.836;4.348;2022-09-16T12:25:28;13.60;99.90
21582;DHT22;10952;50.836;4.348;2022-09-16T12:28:05;13.50;99.90
21582;DHT22;10952;50.836;4.348;2022-09-16T12:30:39;13.60;99.90
21582;DHT22;10952;50.836;4.348;2022-09-16T12:33:27;13.70;99.90
21582;DHT22;10952;50.836;4.348;2022-09-16T12:36:11;14.00;99.90
21582;DHT22;10952;50.836;4.348;2022-09-16T12:38:37;14.30;99.90
21582;DHT22;10952;50.836;4.348;2022-09-16T12:55:26;15.20;99.90
21582;DHT22;10952;50.836;4.348;2022-09-16T13:01:14;15.80;99.90
21582;DHT22;10952;50.836;4.348;2022-09-16T13:03:45;16.30;99.90
21582;DHT22;10952;50.836;4.348;2022-09-16T13:06:24;16.40;99.90
21582;DHT22;10952;50.836;4.348;2022-09-16T13:08:51;16.70;99.90
21582;DHT22;10952;50.836;4.348;2022-09-16T13:11:23;16.70;99.90
21582;DHT22;10952;50.836;4.348;2022-09-16T13:13:53;16.50;99.90
21582;DHT22;10952;50.836;4.348;2022-09-16T13:16:34;16.40;99.90
21582;DHT22;10952;50.836;4.348;2022-09-16T13:19:30;16.50;99.90
21582;DHT22;10952;50.836;4.348;2022-09-16T13:24:37;16.60;99.90
21582;DHT22;10952;50.836;4.348;2022-09-16T13:27:33;16.60;99.90
21582;DHT22;10952;50.836;4.348;2022-09-16T13:32:55;17.30;99.90
21582;DHT22;10952;50.836;4.348;2022-09-16T13:35:46;17.50;99.90
21582;DHT22;10952;50.836;4.348;2022-09-16T13:40:59;17.30;99.90
21582;DHT22;10952;50.836;4.348;2022-09-16T13:43:34;16.30;99.90
21582;DHT22;10952;50.836;4.348;2022-09-16T13:46:05;15.70;99.90
21582;DHT22;10952;50.836;4.348;2022-09-16T13:48:39;15.50;99.90
21582;DHT22;10952;50.836;4.348;2022-09-16T13:51:18;15.40;99.90
21582;DHT22;10952;50.836;4.348;2022-09-16T13:53:47;15.40;99.90
21582;DHT22;10952;50.836;4.348;2022-09-16T13:58:51;15.20;99.90
21582;DHT22;10952;50.836;4.348;2022-09-16T14:01:27;15.00;99.90
21582;DHT22;10952;50.836;4.348;2022-09-16T14:04:02;14.90;99.90
21582;DHT22;10952;50.836;4.348;2022-09-16T14:06:54;14.80;99.90
21582;DHT22;10952;50.836;4.348;2022-09-16T14:12:22;14.90;99.90
21582;DHT22;10952;50.836;4.348;2022-09-16T14:14:43;15.20;99.90
21582;DHT22;10952;50.836;4.348;2022-09-16T14:17:19;15.40;99.90
21582;DHT22;10952;50.836;4.348;2022-09-16T14:19:51;15.20;99.90
21582;DHT22;10952;50.836;4.348;2022-09-16T14:22:19;15.30;99.90
21582;DHT22;10952;50.836;4.348;2022-09-16T14:24:51;15.30;99.90
21582;DHT22;10952;50.836;4.348;2022-09-16T14:27:30;15.50;99.90
21582;DHT22;10952;50.836;4.348;2022-09-16T14:30:02;15.50;99.90
21582;DHT22;10952;50.836;4.348;2022-09-16T14:32:32;15.30;99.90
21582;DHT22;10952;50.836;4.348;2022-09-16T14:35:08;15.40;99.90
21582;DHT22;10952;50.836;4.348;2022-09-16T14:37:37;15.10;99.90
21582;DHT22;10952;50.836;4.348;2022-09-16T14:40:08;15.20;99.90
21582;DHT22;10952;50.836;4.348;2022-09-16T14:42:36;15.00;99.90
21582;DHT22;10952;50.836;4.348;2022-09-16T14:45:03;14.90;99.90
21582;DHT22;10952;50.836;4.348;2022-09-16T14:47:35;14.90;99.90
21582;DHT22;10952;50.836;4.348;2022-09-16T14:52:58;14.80;99.90
21582;DHT22;10952;50.836;4.348;2022-09-16T14:55:27;15.00;99.90
21582;DHT22;10952;50.836;4.348;2022-09-16T14:57:54;15.10;99.90
21582;DHT22;10952;50.836;4.348;2022-09-16T15:00:24;15.30;99.90
21582;DHT22;10952;50.836;4.348;2022-09-16T15:03:40;15.80;99.90
21582;DHT22;10952;50.836;4.348;2022-09-16T15:05:45;16.10;99.90
21582;DHT22;10952;50.836;4.348;2022-09-16T15:08:31;15.90;99.90
21582;DHT22;10952;50.836;4.348;2022-09-16T15:11:01;16.00;99.90
21582;DHT22;10952;50.836;4.348;2022-09-16T15:13:33;16.10;99.90
21582;DHT22;10952;50.836;4.348;2022-09-16T15:18:35;15.90;99.90
21582;DHT22;10952;50.836;4.348;2022-09-16T15:23:37;15.60;99.90
21582;DHT22;10952;50.836;4.348;2022-09-16T15:27:04;15.40;99.90
21582;DHT22;10952;50.836;4.348;2022-09-16T15:29:06;15.40;99.90
21582;DHT22;10952;50.836;4.348;2022-09-16T15:31:36;15.30;99.90
21582;DHT22;10952;50.836;4.348;2022-09-16T15:34:24;15.20;99.90
21582;DHT22;10952;50.836;4.348;2022-09-16T15:36:57;15.00;99.90
21582;DHT22;10952;50.836;4.348;2022-09-16T15:39:28;15.10;99.90
21582;DHT22;10952;50.836;4.348;2022-09-16T15:42:19;15.30;99.90
21582;DHT22;10952;50.836;4.348;2022-09-16T15:44:54;15.40;99.90
21582;DHT22;10952;50.836;4.348;2022-09-16T15:47:24;15.20;99.90
21582;DHT22;10952;50.836;4.348;2022-09-16T15:49:54;15.00;99.90
21582;DHT22;10952;50.836;4.348;2022-09-16T15:52:20;14.70;99.90
21582;DHT22;10952;50.836;4.348;2022-09-16T15:54:56;14.60;99.90
21582;DHT22;10952;50.836;4.348;2022-09-16T15:57:39;14.50;99.90
21582;DHT22;10952;50.836;4.348;2022-09-16T16:00:12;14.60;99.90
21582;DHT22;10952;50.836;4.348;2022-09-16T16:02:46;14.70;99.90
21582;DHT22;10952;50.836;4.348;2022-09-16T16:05:22;14.70;99.90
21582;DHT22;10952;50.836;4.348;2022-09-16T16:07:52;14.80;99.90
21582;DHT22;10952;50.836;4.348;2022-09-16T16:10:24;14.80;99.90
21582;DHT22;10952;50.836;4.348;2022-09-16T16:12:53;14.90;99.90
21582;DHT22;10952;50.836;4.348;2022-09-16T16:15:41;15.10;99.90
21582;DHT22;10952;50.836;4.348;2022-09-16T16:18:08;15.20;99.90
21582;DHT22;10952;50.836;4.348;2022-09-16T16:20:36;15.30;99.90
21582;DHT22;10952;50.836;4.348;2022-09-16T16:23:02;15.20;99.90
21582;DHT22;10952;50.836;4.348;2022-09-16T16:25:29;15.30;99.90
21582;DHT22;10952;50.836;4.348;2022-09-16T16:27:54;15.30;99.90
21582;DHT22;10952;50.836;4.348;2022-09-16T16:30:21;15.20;99.90
21582;DHT22;10952;50.836;4.348;2022-09-16T16:32:46;15.10;99.90
21582;DHT22;10952;50.836;4.348;2022-09-16T16:35:16;15.00;99.90
21582;DHT22;10952;50.836;4.348;2022-09-16T16:37:41;14.60;99.90
21582;DHT22;10952;50.836;4.348;2022-09-16T16:40:07;14.50;99.90
21582;DHT22;10952;50.836;4.348;2022-09-16T16:42:35;14.40;99.90
21582;DHT22;10952;50.836;4.348;2022-09-16T16:45:02;14.40;99.90
21582;DHT22;10952;50.836;4.348;2022-09-16T16:47:28;14.40;99.90
21582;DHT22;10952;50.836;4.348;2022-09-16T16:49:54;14.00;99.90
21582;DHT22;10952;50.836;4.348;2022-09-16T16:52:21;13.80;99.90
21582;DHT22;10952;50.836;4.348;2022-09-16T16:54:47;13.40;99.90
21582;DHT22;10952;50.836;4.348;2022-09-16T16:57:14;13.30;99.90
21582;DHT22;10952;50.836;4.348;2022-09-16T16:59:41;13.20;99.90
21582;DHT22;10952;50.836;4.348;2022-09-16T17:02:10;13.30;99.90
21582;DHT22;10952;50.836;4.348;2022-09-16T17:04:37;13.30;99.90
21582;DHT22;10952;50.836;4.348;2022-09-16T17:07:04;13.30;99.90
21582;DHT22;10952;50.836;4.348;2022-09-16T17:09:30;13.30;99.90
21582;DHT22;10952;50.836;4.348;2022-09-16T17:11:58;13.30;99.90
21582;DHT22;10952;50.836;4.348;2022-09-16T17:14:27;13.50;99.90
21582;DHT22;10952;50.836;4.348;2022-09-16T17:16:56;13.40;99.90
21582;DHT22;10952;50.836;4.348;2022-09-16T17:19:24;13.40;99.90
21582;DHT22;10952;50.836;4.348;2022-09-16T17:21:50;13.40;99.90
21582;DHT22;10952;50.836;4.348;2022-09-16T17:24:18;13.40;99.90
21582;DHT22;10952;50.836;4.348;2022-09-16T17:26:45;13.50;99.90
21582;DHT22;10952;50.836;4.348;2022-09-16T17:29:12;13.40;99.90
21582;DHT22;10952;50.836;4.348;2022-09-16T17:31:40;13.50;99.90
21582;DHT22;10952;50.836;4.348;2022-09-16T17:34:08;13.60;99.90
21582;DHT22;10952;50.836;4.348;2022-09-16T17:36:38;13.60;99.90
21582;DHT22;10952;50.836;4.348;2022-09-16T17:39:10;13.70;99.90
21582;DHT22;10952;50.836;4.348;2022-09-16T17:41:37;13.70;99.90
21582;DHT22;10952;50.836;4.348;2022-09-16T17:44:05;13.80;99.90
21582;DHT22;10952;50.836;4.348;2022-09-16T17:46:31;13.80;99.90
21582;DHT22;10952;50.836;4.348;2022-09-16T17:49:01;13.80;99.90
21582;DHT22;10952;50.836;4.348;2022-09-16T17:51:29;13.90;99.90
21582;DHT22;10952;50.836;4.348;2022-09-16T17:53:55;13.90;99.90
21582;DHT22;10952;50.836;4.348;2022-09-16T17:56:23;14.00;99.90
21582;DHT22;10952;50.836;4.348;2022-09-16T17:58:50;14.10;99.90
21582;DHT22;10952;50.836;4.348;2022-09-16T18:01:20;14.10;99.90
21582;DHT22;10952;50.836;4.348;2022-09-16T18:03:48;14.00;99.90
21582;DHT22;10952;50.836;4.348;2022-09-16T18:06:19;13.90;99.90
21582;DHT22;10952;50.836;4.348;2022-09-16T18:08:45;13.60;99.90
21582;DHT22;10952;50.836;4.348;2022-09-16T18:11:13;13.50;99.90
21582;DHT22;10952;50.836;4.348;2022-09-16T18:13:39;13.50;99.90
21582;DHT22;10952;50.836;4.348;2022-09-16T18:16:11;13.50;99.90
21582;DHT22;10952;50.836;4.348;2022-09-16T18:18:38;13.30;99.90
21582;DHT22;10952;50.836;4.348;2022-09-16T18:21:06;13.30;99.90
21582;DHT22;10952;50.836;4.348;2022-09-16T18:23:32;13.30;99.90
21582;DHT22;10952;50.836;4.348;2022-09-16T18:26:07;13.30;99.90
21582;DHT22;10952;50.836;4.348;2022-09-16T18:28:41;13.40;99.90
21582;DHT22;10952;50.836;4.348;2022-09-16T18:31:09;13.50;99.90
21582;DHT22;10952;50.836;4.348;2022-09-16T18:33:37;13.50;99.90
21582;DHT22;10952;50.836;4.348;2022-09-16T18:36:10;13.40;99.90
21582;DHT22;10952;50.836;4.348;2022-09-16T18:38:37;13.40;99.90
21582;DHT22;10952;50.836;4.348;2022-09-16T18:43:35;13.40;99.90
21582;DHT22;10952;50.836;4.348;2022-09-16T18:46:10;13.40;99.90
21582;DHT22;10952;50.836;4.348;2022-09-16T18:48:37;13.30;99.90
21582;DHT22;10952;50.836;4.348;2022-09-16T18:51:03;13.40;99.90
21582;DHT22;10952;50.836;4.348;2022-09-16T18:53:30;13.40;99.90
21582;DHT22;10952;50.836;4.348;2022-09-16T18:55:56;13.50;99.90
21582;DHT22;10952;50.836;4.348;2022-09-16T18:58:21;13.60;99.90
21582;DHT22;10952;50.836;4.348;2022-09-16T19:00:48;13.50;99.90